ENLE

Ekofisk Oil Platform

Ekofisk, Norway
METAR ENLE 151850Z 19027KT CAVOK 07/05 Q1019 W07/S4
Observed Flight Rules
Feb-15 @ 18:50 UTC (38 minutes ago) Visual Flight Rules
Wind Visibility Clouds
190° at 27 knots 10,000+ meters
  • Clear skies
Temperatures Readings
Current 7°C / 45°F
Dewpoint 5°C / 41°F
Humidity 87%
Altimeter 30.09" Hg
Pressure 1018.92 hPa
Elevation 3
METAR ENLE 151850Z 19027KT CAVOK 07/05 Q1019 W07/S4
Observed Flight Rules
Feb-15 @ 18:50 UTC
(38 minutes ago)
VFR
Wind Visibility
190° at 27 knots 10,000+ meters
Clouds
  • Clear skies
Temperature Dewpoint
7°C / 45°F 5°C / 41°F
Humidity Altimeter Pressure
87% 30.09" Hg 1018.92 hPa